Time;durP1;ratioP1;P1;durP2;ratioP2;P2;SDS_P1;SDS_P2;PMS_P1;PMS_P2;Temp;Humidity;BMP_temperature;BMP_pressure;BME280_temperature;BME280_humidity;BME280_pressure;Samples;Min_cycle;Max_cycle;Signal;HPM_P1;HPM_P2
2022/01/29 00:00:19;;;;;;;14.02;10.02;;;13.30;86.90;;;;;;5073331;28;20184;-66
2022/01/29 00:02:44;;;;;;;14.63;11.07;;;13.30;86.80;;;;;;5073542;28;20351;-66
2022/01/29 00:05:11;;;;;;;13.73;10.50;;;13.30;86.70;;;;;;5072565;28;20477;-66
2022/01/29 00:07:41;;;;;;;15.57;12.70;;;13.30;86.80;;;;;;5073015;28;20028;-66
2022/01/29 00:10:09;;;;;;;13.48;10.90;;;13.20;86.70;;;;;;5073088;28;20025;-65
2022/01/29 00:12:35;;;;;;;13.68;10.70;;;13.20;86.80;;;;;;5072366;28;20029;-66
2022/01/29 00:15:00;;;;;;;13.45;10.52;;;13.30;86.80;;;;;;5073116;28;20387;-65
2022/01/29 00:17:26;;;;;;;16.00;10.70;;;13.20;87.30;;;;;;5072933;28;20082;-65
2022/01/29 00:19:52;;;;;;;14.68;10.13;;;13.20;86.80;;;;;;5072928;28;20111;-66
2022/01/29 00:22:17;;;;;;;15.05;10.93;;;13.20;86.80;;;;;;5072782;28;20428;-66
2022/01/29 00:24:43;;;;;;;16.05;11.45;;;13.20;86.70;;;;;;5073234;28;20082;-66
2022/01/29 00:27:10;;;;;;;14.60;10.65;;;13.30;86.70;;;;;;5073078;28;20024;-66
2022/01/29 00:29:41;;;;;;;14.88;10.15;;;13.30;86.50;;;;;;5073337;28;20400;-66
2022/01/29 00:32:08;;;;;;;14.10;10.77;;;13.30;86.60;;;;;;5073042;28;20021;-66
2022/01/29 00:34:34;;;;;;;13.68;9.80;;;13.20;86.70;;;;;;5073000;28;20442;-66
2022/01/29 00:37:00;;;;;;;15.82;10.90;;;13.20;86.80;;;;;;5072505;28;20028;-64
2022/01/29 00:39:27;;;;;;;13.07;10.23;;;13.20;86.80;;;;;;5073024;28;20044;-65
2022/01/29 00:41:52;;;;;;;16.23;11.95;;;13.20;86.80;;;;;;5072845;28;20103;-65
2022/01/29 00:44:18;;;;;;;14.15;10.18;;;13.20;86.90;;;;;;5072759;28;20056;-65
2022/01/29 00:46:43;;;;;;;14.27;10.25;;;13.20;86.80;;;;;;5072489;28;20482;-66
2022/01/29 00:49:10;;;;;;;13.00;10.15;;;13.20;87.00;;;;;;5072853;28;20468;-66
2022/01/29 00:51:36;;;;;;;14.23;11.50;;;13.20;86.80;;;;;;5072736;28;20381;-66
2022/01/29 00:54:02;;;;;;;13.15;10.18;;;13.20;86.80;;;;;;5072904;28;20474;-66
2022/01/29 00:56:28;;;;;;;14.00;11.05;;;13.20;86.80;;;;;;5072520;28;20056;-65
2022/01/29 00:58:53;;;;;;;14.77;11.18;;;13.30;86.80;;;;;;5072931;28;20415;-66
2022/01/29 01:01:19;;;;;;;16.00;11.32;;;13.20;86.80;;;;;;5072725;28;20021;-66
2022/01/29 01:03:45;;;;;;;12.40;10.73;;;13.20;86.80;;;;;;5072735;28;20028;-66
2022/01/29 01:06:10;;;;;;;14.10;11.15;;;13.20;86.90;;;;;;5071008;28;20029;-66
2022/01/29 01:08:36;;;;;;;13.98;10.40;;;13.20;86.80;;;;;;5072973;28;20020;-67
2022/01/29 01:11:03;;;;;;;15.93;11.98;;;13.20;86.80;;;;;;5072444;28;20490;-65
2022/01/29 01:13:33;;;;;;;16.17;11.60;;;13.20;86.80;;;;;;5072582;28;20090;-65
2022/01/29 01:15:59;;;;;;;13.30;11.77;;;13.20;86.80;;;;;;5072632;28;20020;-65
2022/01/29 01:18:25;;;;;;;14.40;11.63;;;13.20;86.80;;;;;;5075530;28;20029;-65
2022/01/29 01:20:51;;;;;;;13.85;11.30;;;13.20;86.90;;;;;;5074752;28;20043;-66
2022/01/29 01:23:17;;;;;;;13.10;10.77;;;13.10;86.90;;;;;;5076058;28;20032;-66
2022/01/29 01:25:42;;;;;;;14.13;10.48;;;13.20;86.90;;;;;;5076366;28;20032;-65
2022/01/29 01:28:08;;;;;;;10.95;9.48;;;13.10;87.00;;;;;;5076135;28;20401;-66
2022/01/29 01:30:35;;;;;;;16.98;11.68;;;13.20;87.00;;;;;;5076200;28;20056;-66
2022/01/29 01:33:02;;;;;;;12.15;10.65;;;13.20;87.00;;;;;;5075979;28;20500;-65
2022/01/29 01:35:37;;;;;;;13.73;10.45;;;13.20;86.90;;;;;;5075709;28;20467;-66
2022/01/29 01:38:17;;;;;;;14.15;11.23;;;13.10;86.90;;;;;;5075847;28;20024;-66
2022/01/29 01:40:47;;;;;;;15.43;11.05;;;13.10;87.00;;;;;;5076198;28;20043;-66
2022/01/29 01:43:13;;;;;;;13.63;10.25;;;13.10;87.00;;;;;;5075710;28;20470;-66
2022/01/29 01:45:38;;;;;;;13.65;11.07;;;13.10;87.00;;;;;;5075875;28;20031;-66
2022/01/29 01:48:06;;;;;;;18.15;12.82;;;13.10;87.10;;;;;;5075609;28;20032;-66
2022/01/29 01:50:32;;;;;;;17.70;12.38;;;13.10;87.10;;;;;;5075711;28;20031;-66
2022/01/29 01:52:58;;;;;;;17.10;12.40;;;13.10;87.30;;;;;;5075588;28;20025;-65
2022/01/29 01:55:24;;;;;;;15.68;11.95;;;13.10;87.30;;;;;;5075736;28;20078;-65
2022/01/29 01:57:50;;;;;;;15.82;10.63;;;13.10;87.30;;;;;;5075948;28;20024;-66
2022/01/29 02:00:16;;;;;;;12.93;11.05;;;13.10;87.40;;;;;;5075615;28;20069;-66
2022/01/29 02:02:41;;;;;;;13.88;11.27;;;13.10;87.40;;;;;;5075319;28;20024;-64
2022/01/29 02:05:09;;;;;;;14.25;11.13;;;13.10;87.40;;;;;;5075556;28;20037;-64
2022/01/29 02:07:35;;;;;;;12.88;11.05;;;13.10;87.40;;;;;;5075324;28;20420;-64
2022/01/29 02:10:01;;;;;;;12.68;10.05;;;13.10;87.50;;;;;;5075488;28;20021;-64
2022/01/29 02:12:30;;;;;;;12.75;9.98;;;13.10;87.50;;;;;;5075157;28;20029;-64
2022/01/29 02:15:01;;;;;;;12.23;9.95;;;13.10;87.40;;;;;;5075580;28;20032;-64
2022/01/29 02:17:26;;;;;;;14.10;9.55;;;13.10;87.40;;;;;;5074710;28;20043;-64
2022/01/29 02:19:52;;;;;;;17.02;10.43;;;13.10;87.50;;;;;;5075065;28;20040;-64
2022/01/29 02:22:17;;;;;;;14.18;10.95;;;13.10;87.50;;;;;;5075239;28;20078;-64
2022/01/29 02:24:43;;;;;;;11.95;9.40;;;13.10;87.50;;;;;;5075081;28;20101;-65
2022/01/29 02:27:08;;;;;;;11.75;10.02;;;13.10;87.50;;;;;;5074744;28;20048;-65
2022/01/29 02:29:34;;;;;;;11.30;9.32;;;13.10;87.70;;;;;;5074630;28;20033;-65
2022/01/29 02:32:00;;;;;;;13.57;10.07;;;13.10;87.70;;;;;;5074909;28;20025;-65
2022/01/29 02:34:29;;;;;;;10.27;8.35;;;13.00;87.70;;;;;;5074814;28;20027;-66
2022/01/29 02:36:55;;;;;;;10.77;8.68;;;13.10;87.90;;;;;;5074923;28;20032;-65
2022/01/29 02:39:22;;;;;;;15.07;9.57;;;13.10;87.90;;;;;;5074734;28;20401;-64
2022/01/29 02:41:47;;;;;;;11.68;8.30;;;13.00;88.00;;;;;;5074482;28;20028;-65
2022/01/29 02:44:17;;;;;;;11.70;8.65;;;13.10;88.00;;;;;;5073510;28;20027;-64
2022/01/29 02:49:17;;;;;;;12.27;8.98;;;13.00;88.00;;;;;;5074724;28;20473;-65
2022/01/29 02:51:49;;;;;;;9.57;8.35;;;13.00;88.10;;;;;;5074648;28;20027;-66
2022/01/29 02:54:16;;;;;;;9.52;7.45;;;13.00;88.20;;;;;;5074486;28;20099;-64
2022/01/29 02:56:41;;;;;;;10.18;7.10;;;13.00;88.30;;;;;;5074479;28;20032;-64
2022/01/29 02:59:07;;;;;;;10.18;7.47;;;13.00;88.20;;;;;;5074207;28;20040;-64
2022/01/29 03:01:34;;;;;;;9.30;7.03;;;13.00;88.30;;;;;;5074236;28;20012;-65
2022/01/29 03:03:59;;;;;;;10.70;8.52;;;13.00;88.30;;;;;;5074447;28;20025;-66
2022/01/29 03:06:25;;;;;;;11.25;9.13;;;13.00;88.50;;;;;;5074374;28;20021;-65
2022/01/29 03:08:50;;;;;;;10.70;7.93;;;13.00;88.60;;;;;;5074051;28;20470;-66
2022/01/29 03:11:19;;;;;;;8.15;7.07;;;13.00;88.50;;;;;;5074369;28;20667;-66
2022/01/29 03:13:49;;;;;;;10.13;7.30;;;13.00;88.70;;;;;;5074082;28;20439;-66
2022/01/29 03:16:15;;;;;;;8.55;6.70;;;13.00;88.70;;;;;;5073850;28;20469;-66
2022/01/29 03:18:40;;;;;;;9.57;6.88;;;12.90;88.90;;;;;;5073799;28;20047;-66
2022/01/29 03:21:06;;;;;;;11.07;6.90;;;12.90;88.80;;;;;;5073978;28;20020;-66
2022/01/29 03:23:31;;;;;;;7.03;5.65;;;12.90;88.70;;;;;;5073842;28;20492;-66
2022/01/29 03:25:57;;;;;;;8.57;6.38;;;13.00;88.90;;;;;;5073872;28;20027;-65
2022/01/29 03:28:22;;;;;;;8.38;6.68;;;13.00;89.00;;;;;;5073942;28;20036;-65
2022/01/29 03:30:48;;;;;;;11.00;7.32;;;12.90;89.00;;;;;;5073511;28;20086;-65
2022/01/29 03:33:14;;;;;;;8.75;6.90;;;12.90;89.10;;;;;;5073816;28;20081;-66
2022/01/29 03:35:39;;;;;;;8.60;6.20;;;12.90;89.00;;;;;;5073479;28;20429;-65
2022/01/29 03:38:05;;;;;;;7.20;6.05;;;13.00;89.00;;;;;;5073607;28;20024;-65
2022/01/29 03:40:32;;;;;;;8.13;6.00;;;13.00;89.00;;;;;;5072789;28;20488;-66
2022/01/29 03:43:10;;;;;;;6.95;5.45;;;13.00;89.00;;;;;;5073838;28;20165;-65
2022/01/29 03:45:36;;;;;;;9.10;5.90;;;13.00;89.10;;;;;;5073126;28;20021;-65
2022/01/29 03:48:02;;;;;;;6.93;5.00;;;13.00;89.20;;;;;;5073859;28;20024;-65
2022/01/29 03:50:28;;;;;;;7.13;5.90;;;13.00;89.30;;;;;;5073345;28;20101;-66
2022/01/29 03:52:54;;;;;;;7.65;5.55;;;13.00;89.30;;;;;;5073541;28;20458;-65
2022/01/29 03:55:20;;;;;;;6.72;5.15;;;13.00;89.50;;;;;;5073308;28;20033;-64
2022/01/29 03:57:45;;;;;;;6.35;5.25;;;13.00;89.40;;;;;;5073341;28;20492;-65
2022/01/29 04:00:11;;;;;;;7.60;5.10;;;13.00;89.40;;;;;;5071701;28;20044;-65
2022/01/29 04:02:37;;;;;;;7.03;5.22;;;12.90;89.50;;;;;;5072137;28;20055;-63
2022/01/29 04:05:03;;;;;;;7.32;4.88;;;12.90;89.50;;;;;;5073052;28;20109;-65
2022/01/29 04:07:29;;;;;;;10.38;5.65;;;13.00;89.60;;;;;;5073343;28;20470;-65
2022/01/29 04:09:55;;;;;;;7.47;4.80;;;13.00;89.70;;;;;;5073165;28;20111;-66
2022/01/29 04:12:22;;;;;;;6.65;4.63;;;13.00;89.70;;;;;;5073168;28;20043;-65
2022/01/29 04:14:47;;;;;;;5.35;4.43;;;13.00;89.70;;;;;;5072732;28;20059;-65
2022/01/29 04:17:13;;;;;;;6.82;5.45;;;12.90;89.70;;;;;;5073048;28;20503;-65
2022/01/29 04:19:39;;;;;;;5.72;4.05;;;13.00;89.80;;;;;;5073015;28;20044;-65
2022/01/29 04:22:06;;;;;;;5.25;4.00;;;12.90;89.80;;;;;;5048013;28;20024;-65
2022/01/29 04:24:32;;;;;;;5.80;4.25;;;12.90;90.00;;;;;;5052628;28;20029;-65
2022/01/29 04:26:58;;;;;;;5.90;4.28;;;12.90;89.90;;;;;;5052116;28;20031;-65
2022/01/29 04:29:27;;;;;;;4.82;3.80;;;12.90;90.00;;;;;;5052869;28;20024;-65
2022/01/29 04:34:21;;;;;;;5.30;3.67;;;12.90;90.00;;;;;;5052860;28;20492;-66
2022/01/29 04:36:47;;;;;;;4.30;3.63;;;12.90;90.00;;;;;;5052744;28;20025;-66
2022/01/29 04:39:13;;;;;;;4.70;3.80;;;12.90;90.00;;;;;;5052945;28;20524;-66
2022/01/29 04:41:39;;;;;;;4.95;3.67;;;12.90;90.10;;;;;;5052902;28;20458;-66
2022/01/29 04:44:04;;;;;;;4.75;3.40;;;12.90;90.10;;;;;;5052608;28;20052;-65
2022/01/29 04:46:30;;;;;;;5.75;4.68;;;12.90;90.10;;;;;;5052556;28;20021;-65
2022/01/29 04:48:56;;;;;;;4.45;4.00;;;12.90;90.20;;;;;;5052655;28;20021;-66
2022/01/29 04:51:21;;;;;;;5.53;5.00;;;12.90;90.10;;;;;;5054537;28;20470;-65
2022/01/29 04:53:48;;;;;;;3.80;3.33;;;12.90;90.20;;;;;;5056842;28;20485;-65
2022/01/29 04:56:13;;;;;;;6.50;3.25;;;12.90;90.20;;;;;;5056641;28;20086;-66
2022/01/29 04:58:39;;;;;;;4.55;3.67;;;12.90;90.20;;;;;;5056455;28;20526;-66
2022/01/29 05:01:05;;;;;;;5.22;3.05;;;12.90;90.20;;;;;;5056463;28;20151;-64
2022/01/29 05:03:31;;;;;;;3.35;2.83;;;13.00;90.20;;;;;;5056798;28;20493;-66
2022/01/29 05:05:57;;;;;;;5.75;3.15;;;12.90;90.20;;;;;;5056639;28;20057;-66
2022/01/29 05:08:23;;;;;;;4.78;4.10;;;12.90;90.30;;;;;;5056647;28;20021;-66
2022/01/29 05:10:48;;;;;;;4.72;3.42;;;12.90;90.30;;;;;;5056567;28;20028;-63
2022/01/29 05:13:21;;;;;;;3.85;3.15;;;12.90;90.30;;;;;;5056142;28;20096;-66
2022/01/29 05:29:17;;;;;;;3.22;2.85;;;12.90;90.40;;;;;;5056226;28;20382;-62
2022/01/29 05:31:44;;;;;;;3.00;2.70;;;12.90;90.40;;;;;;5056222;28;20032;-62
2022/01/29 05:34:10;;;;;;;3.42;2.60;;;12.90;90.40;;;;;;5056009;28;20096;-65
2022/01/29 05:36:35;;;;;;;3.03;2.67;;;12.90;90.40;;;;;;5056137;28;20501;-65
2022/01/29 05:39:02;;;;;;;3.08;2.45;;;12.90;90.50;;;;;;5055814;28;20078;-66
2022/01/29 05:41:30;;;;;;;3.05;2.70;;;13.00;90.50;;;;;;5055794;28;20025;-62
2022/01/29 05:43:56;;;;;;;3.70;2.55;;;13.00;90.50;;;;;;5055833;28;20465;-63
2022/01/29 05:46:22;;;;;;;3.28;2.40;;;12.90;90.50;;;;;;5055916;28;20032;-62
2022/01/29 05:48:47;;;;;;;3.92;2.80;;;13.00;90.50;;;;;;5055903;28;20041;-62
2022/01/29 05:51:13;;;;;;;2.78;2.50;;;13.00;90.60;;;;;;5055708;28;20033;-63
2022/01/29 05:53:39;;;;;;;3.65;2.67;;;13.00;90.50;;;;;;5055799;28;20044;-62
2022/01/29 05:56:06;;;;;;;2.90;2.42;;;12.90;90.60;;;;;;5055437;28;20028;-63
2022/01/29 05:58:32;;;;;;;3.42;2.17;;;13.00;90.60;;;;;;5055700;28;20033;-62
2022/01/29 06:00:58;;;;;;;3.38;2.75;;;13.00;90.60;;;;;;5047342;28;20042;-65
2022/01/29 06:03:23;;;;;;;3.63;3.08;;;13.00;90.60;;;;;;5033128;28;20037;-65
2022/01/29 06:05:49;;;;;;;2.45;2.00;;;12.90;90.70;;;;;;5035208;28;20087;-62
2022/01/29 06:08:14;;;;;;;3.20;2.50;;;12.90;90.60;;;;;;5035321;28;20021;-65
2022/01/29 06:10:40;;;;;;;3.83;2.50;;;13.00;90.70;;;;;;5035071;28;20030;-62
2022/01/29 06:13:10;;;;;;;3.85;2.40;;;12.90;90.60;;;;;;5035279;28;20025;-62
2022/01/29 06:15:42;;;;;;;3.38;2.15;;;12.90;90.60;;;;;;5035383;28;20048;-62
2022/01/29 06:18:15;;;;;;;3.15;2.28;;;13.00;90.70;;;;;;5035023;28;20107;-62
2022/01/29 06:20:47;;;;;;;3.60;2.45;;;13.00;90.70;;;;;;5035231;28;20061;-62
2022/01/29 06:23:14;;;;;;;4.93;4.18;;;12.90;90.70;;;;;;5035373;28;20026;-62
2022/01/29 06:25:40;;;;;;;2.45;2.10;;;12.90;90.80;;;;;;5034900;28;20111;-62
2022/01/29 06:28:06;;;;;;;2.72;2.00;;;12.90;90.80;;;;;;5035213;28;20028;-62
2022/01/29 06:30:32;;;;;;;2.10;1.80;;;12.90;90.80;;;;;;5033911;28;20030;-61
2022/01/29 06:33:14;;;;;;;2.95;2.00;;;12.90;90.80;;;;;;5035014;28;20028;-62
2022/01/29 06:35:42;;;;;;;2.95;2.20;;;12.90;90.80;;;;;;5035134;28;20056;-62
2022/01/29 06:38:12;;;;;;;2.63;1.70;;;12.90;90.80;;;;;;5033353;28;20044;-63
2022/01/29 06:40:38;;;;;;;2.78;2.17;;;12.90;90.90;;;;;;5035003;28;20026;-62
2022/01/29 06:43:05;;;;;;;4.35;2.90;;;12.90;90.90;;;;;;5034788;28;20021;-63
2022/01/29 06:45:32;;;;;;;3.88;3.45;;;12.90;90.90;;;;;;5034247;28;20108;-62
2022/01/29 06:47:58;;;;;;;4.40;3.35;;;12.90;91.10;;;;;;5040825;28;20025;-62
2022/01/29 06:50:23;;;;;;;3.90;2.60;;;12.80;91.00;;;;;;5038130;28;20405;-62
2022/01/29 06:52:50;;;;;;;2.95;2.60;;;12.80;91.20;;;;;;5046889;28;20052;-62
2022/01/29 06:55:16;;;;;;;7.00;3.95;;;12.80;91.30;;;;;;5038612;28;20056;-62
2022/01/29 06:57:41;;;;;;;4.50;2.40;;;12.80;91.40;;;;;;5036453;28;20029;-62
2022/01/29 07:00:08;;;;;;;5.13;3.20;;;12.80;91.50;;;;;;5054030;28;20041;-62
2022/01/29 07:02:35;;;;;;;5.10;2.55;;;12.80;91.70;;;;;;5054277;28;20028;-62
2022/01/29 07:05:01;;;;;;;3.58;2.10;;;12.80;91.70;;;;;;5048864;28;20045;-63
2022/01/29 07:07:27;;;;;;;3.78;1.80;;;12.80;91.90;;;;;;5053782;28;20064;-63
2022/01/29 07:09:53;;;;;;;5.97;2.17;;;12.80;92.00;;;;;;5051429;28;20059;-63
2022/01/29 07:12:18;;;;;;;4.25;2.97;;;12.80;92.10;;;;;;5052050;28;20087;-63
2022/01/29 07:14:44;;;;;;;4.10;2.53;;;12.80;92.30;;;;;;5053994;28;20390;-64
2022/01/29 07:17:16;;;;;;;4.57;3.17;;;12.70;92.50;;;;;;5052447;28;20037;-63
2022/01/29 07:19:42;;;;;;;2.97;2.13;;;12.70;92.60;;;;;;5053632;28;20091;-63
2022/01/29 07:22:07;;;;;;;6.80;1.88;;;12.80;92.60;;;;;;5053627;28;20497;-63
2022/01/29 07:24:34;;;;;;;5.10;2.50;;;12.80;92.70;;;;;;5048269;28;20048;-63
2022/01/29 07:26:59;;;;;;;5.18;3.97;;;12.80;92.70;;;;;;5045191;28;20094;-63
2022/01/29 07:29:25;;;;;;;6.30;2.05;;;12.80;92.90;;;;;;5051286;28;20060;-63
2022/01/29 07:31:51;;;;;;;5.35;4.10;;;12.80;92.90;;;;;;5033830;28;20021;-63
2022/01/29 07:34:17;;;;;;;6.45;1.77;;;12.80;93.10;;;;;;5033336;28;20544;-63
2022/01/29 07:36:43;;;;;;;4.70;1.50;;;12.80;93.10;;;;;;5033430;28;20104;-63
2022/01/29 07:39:09;;;;;;;2.58;1.10;;;12.90;93.20;;;;;;5033403;28;20144;-63
2022/01/29 07:41:34;;;;;;;4.95;1.60;;;12.90;93.30;;;;;;5034043;28;20018;-63
2022/01/29 07:44:00;;;;;;;4.07;2.10;;;12.90;93.40;;;;;;5047395;28;20369;-63
2022/01/29 07:46:26;;;;;;;3.95;2.30;;;12.90;93.40;;;;;;5050987;28;20029;-63
2022/01/29 07:48:52;;;;;;;2.80;0.80;;;13.00;93.50;;;;;;5072552;28;20527;-63
2022/01/29 07:51:17;;;;;;;5.45;1.25;;;13.00;93.60;;;;;;5072929;28;20051;-63
2022/01/29 07:53:43;;;;;;;5.25;2.55;;;13.30;93.70;;;;;;5074221;28;20057;-65
2022/01/29 07:56:09;;;;;;;7.13;0.90;;;13.70;92.80;;;;;;5074337;28;20020;-64
2022/01/29 07:58:35;;;;;;;1.33;0.50;;;14.00;92.40;;;;;;5074624;28;20025;-62
2022/01/29 08:01:01;;;;;;;7.18;1.77;;;14.10;91.90;;;;;;5053989;28;20034;-69
2022/01/29 08:03:27;;;;;;;2.95;1.25;;;14.30;91.80;;;;;;5033080;28;20096;-66
2022/01/29 08:05:52;;;;;;;3.92;1.48;;;14.20;91.90;;;;;;5039524;28;20029;-62
2022/01/29 08:08:18;;;;;;;5.22;0.80;;;14.10;92.00;;;;;;5065476;28;20033;-66
2022/01/29 08:10:43;;;;;;;2.83;1.60;;;14.10;92.20;;;;;;5072774;28;20031;-68
2022/01/29 08:13:09;;;;;;;5.25;0.63;;;14.00;92.40;;;;;;5069634;28;20028;-68
2022/01/29 08:15:34;;;;;;;5.70;2.22;;;14.00;92.40;;;;;;5072925;28;20154;-68
2022/01/29 08:18:00;;;;;;;2.63;0.82;;;14.00;92.50;;;;;;5059375;28;20495;-67
2022/01/29 08:20:26;;;;;;;6.45;1.00;;;14.00;92.50;;;;;;5051387;28;20494;-63
2022/01/29 08:22:51;;;;;;;9.13;4.07;;;14.00;92.50;;;;;;5051954;28;20028;-71
2022/01/29 08:25:17;;;;;;;2.33;1.00;;;13.90;92.60;;;;;;5052336;28;20044;-65
2022/01/29 08:27:43;;;;;;;6.10;2.50;;;13.90;92.60;;;;;;5052666;28;20025;-61
2022/01/29 08:30:08;;;;;;;5.20;1.45;;;13.90;92.60;;;;;;5051264;28;20028;-63
2022/01/29 08:32:40;;;;;;;3.85;1.65;;;13.90;92.60;;;;;;5052423;28;20033;-63
2022/01/29 08:35:07;;;;;;;3.60;1.40;;;13.90;92.60;;;;;;5052330;28;20068;-70
2022/01/29 08:37:33;;;;;;;2.72;1.17;;;13.90;92.60;;;;;;5052575;28;20056;-67
2022/01/29 08:39:58;;;;;;;5.63;1.92;;;13.90;92.70;;;;;;5052459;28;20072;-67
2022/01/29 08:42:24;;;;;;;6.78;2.10;;;13.90;92.70;;;;;;5049607;28;20099;-68
2022/01/29 08:44:49;;;;;;;5.80;2.00;;;13.90;92.80;;;;;;5043691;28;20053;-67
2022/01/29 08:47:15;;;;;;;3.95;1.02;;;13.80;92.80;;;;;;5031935;28;20037;-62
2022/01/29 08:49:40;;;;;;;8.38;1.17;;;13.90;92.90;;;;;;5027653;28;20022;-65
2022/01/29 08:52:06;;;;;;;4.70;2.42;;;13.90;92.90;;;;;;5032317;28;20530;-68
2022/01/29 08:54:32;;;;;;;4.32;0.95;;;13.80;92.80;;;;;;5031102;28;20391;-66
2022/01/29 08:56:57;;;;;;;3.33;1.05;;;13.80;92.70;;;;;;5031963;28;20101;-69
2022/01/29 08:59:23;;;;;;;3.70;0.98;;;13.90;92.60;;;;;;5036288;28;20038;-60
2022/01/29 09:01:48;;;;;;;4.93;1.27;;;13.90;92.40;;;;;;5048859;28;20017;-67
2022/01/29 09:04:14;;;;;;;3.15;1.30;;;13.90;92.30;;;;;;5037708;28;20112;-62
2022/01/29 09:06:39;;;;;;;8.35;1.63;;;13.90;92.30;;;;;;5034912;28;20164;-61
2022/01/29 09:09:05;;;;;;;3.00;1.45;;;13.90;92.40;;;;;;5039274;28;20034;-60
2022/01/29 09:11:30;;;;;;;11.20;1.83;;;13.90;92.70;;;;;;5043632;28;20087;-61
2022/01/29 09:13:56;;;;;;;7.32;2.20;;;14.00;92.50;;;;;;5037195;28;20064;-66
2022/01/29 09:16:21;;;;;;;12.70;2.00;;;14.00;92.60;;;;;;5037224;28;20033;-62
2022/01/29 09:18:47;;;;;;;10.48;1.77;;;14.00;92.60;;;;;;5033069;28;20313;-66
2022/01/29 09:21:13;;;;;;;4.43;1.67;;;14.00;92.70;;;;;;5033377;28;20116;-61
2022/01/29 09:23:38;;;;;;;5.03;1.95;;;14.00;92.70;;;;;;5039348;28;20025;-61
2022/01/29 09:26:04;;;;;;;7.07;2.33;;;14.00;92.70;;;;;;5039792;28;20419;-68
2022/01/29 09:28:30;;;;;;;3.20;1.50;;;14.00;92.60;;;;;;5041109;28;20049;-65
2022/01/29 09:30:56;;;;;;;3.38;1.30;;;14.10;92.70;;;;;;5034060;28;20155;-63
2022/01/29 09:33:22;;;;;;;6.10;1.60;;;14.10;92.80;;;;;;5033303;28;20040;-59
2022/01/29 09:35:47;;;;;;;8.73;2.33;;;14.10;92.80;;;;;;5039045;28;20032;-64
2022/01/29 09:38:13;;;;;;;7.13;1.52;;;14.20;92.70;;;;;;5039821;28;20021;-62
2022/01/29 09:40:41;;;;;;;8.02;1.35;;;14.20;92.70;;;;;;5047001;28;20107;-64
2022/01/29 09:43:09;;;;;;;3.15;1.58;;;14.20;92.60;;;;;;5040579;28;20488;-65
2022/01/29 09:45:35;;;;;;;7.35;1.60;;;14.20;92.60;;;;;;5042812;28;20029;-68
2022/01/29 09:48:02;;;;;;;8.52;1.95;;;14.20;92.50;;;;;;5042232;28;20040;-70
2022/01/29 09:50:30;;;;;;;9.77;2.00;;;14.20;92.60;;;;;;5040476;28;20025;-70
2022/01/29 09:52:56;;;;;;;8.13;2.42;;;14.30;92.60;;;;;;5041662;28;20033;-60
2022/01/29 09:55:25;;;;;;;6.88;2.50;;;14.20;92.60;;;;;;5045752;28;20101;-62
2022/01/29 09:57:54;;;;;;;7.22;2.35;;;14.20;92.60;;;;;;5047021;28;20044;-62
2022/01/29 10:00:21;;;;;;;7.07;1.73;;;14.20;92.60;;;;;;5044365;28;20055;-67
2022/01/29 10:03:14;;;;;;;8.93;2.13;;;14.20;92.60;;;;;;5035880;28;20022;-68
2022/01/29 10:05:45;;;;;;;6.55;2.08;;;14.20;92.50;;;;;;5044531;28;20036;-70
2022/01/29 10:08:11;;;;;;;5.57;1.77;;;14.20;92.60;;;;;;5055276;28;20032;-69
2022/01/29 10:10:58;;;;;;;3.97;1.30;;;14.20;92.50;;;;;;5055042;28;20025;-70
2022/01/29 10:13:27;;;;;;;4.30;1.70;;;14.30;92.50;;;;;;5054952;28;20020;-68
2022/01/29 10:16:12;;;;;;;6.00;1.65;;;14.20;92.50;;;;;;5055002;28;20013;-68
2022/01/29 10:18:39;;;;;;;5.93;1.75;;;14.30;92.40;;;;;;5054819;28;20272;-68
2022/01/29 10:21:15;;;;;;;3.60;1.02;;;14.30;92.40;;;;;;5055274;28;20030;-70
2022/01/29 10:23:43;;;;;;;5.10;1.13;;;14.30;92.40;;;;;;5054849;28;20462;-70
2022/01/29 10:26:10;;;;;;;6.00;1.52;;;14.30;92.30;;;;;;5054788;28;20104;-60
2022/01/29 10:28:38;;;;;;;7.47;1.33;;;14.30;92.20;;;;;;5072407;28;20021;-70
2022/01/29 10:31:05;;;;;;;8.15;1.65;;;14.30;92.20;;;;;;5074605;28;20023;-69
2022/01/29 10:33:36;;;;;;;5.72;1.92;;;14.40;92.20;;;;;;5052245;28;20028;-70
2022/01/29 10:36:07;;;;;;;2.80;0.88;;;14.40;92.20;;;;;;5047303;28;20056;-70
2022/01/29 10:38:45;;;;;;;5.05;1.08;;;14.40;92.20;;;;;;5046738;28;20028;-63
2022/01/29 10:41:24;;;;;;;4.03;1.00;;;14.50;92.00;;;;;;5053514;28;20037;-70
2022/01/29 10:43:54;;;;;;;4.25;0.80;;;14.50;92.00;;;;;;5054141;28;20096;-66
2022/01/29 10:46:25;;;;;;;5.10;1.02;;;14.50;91.90;;;;;;5053663;28;20541;-60
2022/01/29 10:48:50;;;;;;;5.13;1.25;;;14.60;91.80;;;;;;5053173;28;20035;-66
2022/01/29 10:51:16;;;;;;;1.98;0.80;;;14.60;92.10;;;;;;5053867;28;20100;-70
2022/01/29 10:53:42;;;;;;;5.20;1.02;;;14.60;91.80;;;;;;5053502;28;20148;-70
2022/01/29 10:56:07;;;;;;;2.35;0.50;;;14.60;91.80;;;;;;5052554;28;20082;-64
2022/01/29 10:58:43;;;;;;;4.25;0.90;;;14.60;91.70;;;;;;5053489;28;20028;-70
2022/01/29 11:01:21;;;;;;;3.33;1.13;;;14.70;91.60;;;;;;5053550;28;20025;-64
2022/01/29 11:03:47;;;;;;;5.70;1.17;;;14.70;91.60;;;;;;5034785;28;20029;-69
2022/01/29 11:06:16;;;;;;;2.40;0.95;;;14.70;91.60;;;;;;5033209;28;20032;-62
2022/01/29 11:08:42;;;;;;;5.68;1.10;;;14.80;91.50;;;;;;5016695;28;20104;-71
2022/01/29 11:11:10;;;;;;;5.38;1.40;;;14.80;91.40;;;;;;5033578;28;20415;-69
2022/01/29 11:13:36;;;;;;;5.25;1.15;;;14.80;91.40;;;;;;5033416;28;20099;-71
2022/01/29 11:16:03;;;;;;;3.60;1.15;;;14.80;91.40;;;;;;5031750;28;20421;-69
2022/01/29 11:18:32;;;;;;;4.10;1.45;;;14.80;91.30;;;;;;5033554;28;20395;-71
2022/01/29 11:20:58;;;;;;;4.25;1.10;;;14.80;91.30;;;;;;5045248;28;20033;-70
2022/01/29 11:23:25;;;;;;;4.88;1.20;;;14.90;91.30;;;;;;5036719;28;20044;-65
2022/01/29 11:25:58;;;;;;;3.78;1.15;;;14.90;91.30;;;;;;5036743;28;20140;-68
2022/01/29 11:28:27;;;;;;;3.80;1.30;;;14.90;91.40;;;;;;5037050;28;20021;-65
2022/01/29 11:31:13;;;;;;;4.97;1.48;;;15.00;91.50;;;;;;5035671;28;20037;-67
2022/01/29 11:33:57;;;;;;;7.00;2.15;;;15.00;91.70;;;;;;5038163;28;20486;-71
2022/01/29 11:36:49;;;;;;;8.63;2.30;;;15.10;92.20;;;;;;5038657;28;20021;-66
2022/01/29 11:39:21;;;;;;;8.10;3.33;;;15.10;93.70;;;;;;5040946;28;20029;-70
2022/01/29 11:42:27;;;;;;;7.53;2.90;;;15.20;94.30;;;;;;5038203;28;20029;-66
2022/01/29 11:44:55;;;;;;;12.15;2.83;;;15.20;94.60;;;;;;5040933;28;20494;-63
2022/01/29 11:47:25;;;;;;;11.90;3.35;;;15.30;95.20;;;;;;5040220;28;20023;-73
2022/01/29 11:49:52;;;;;;;11.48;3.42;;;15.40;95.30;;;;;;5041220;28;20123;-71
2022/01/29 11:52:22;;;;;;;12.43;3.75;;;15.40;95.70;;;;;;5043444;28;20050;-71
2022/01/29 11:55:03;;;;;;;13.68;3.83;;;15.60;95.80;;;;;;5049008;28;20036;-66
2022/01/29 11:57:28;;;;;;;16.77;3.75;;;15.70;95.10;;;;;;5049914;28;20032;-70
2022/01/29 11:59:54;;;;;;;12.55;3.63;;;15.60;94.90;;;;;;5033482;28;20471;-70
2022/01/29 12:02:19;;;;;;;13.25;4.25;;;15.70;94.90;;;;;;5049230;28;20025;-69
2022/01/29 12:04:52;;;;;;;15.85;2.55;;;15.70;94.50;;;;;;5041669;28;20025;-71
2022/01/29 12:07:26;;;;;;;13.15;3.28;;;15.70;94.10;;;;;;5046213;28;20036;-70
2022/01/29 12:10:10;;;;;;;10.07;2.25;;;15.70;93.90;;;;;;5051115;28;20037;-68
2022/01/29 12:12:37;;;;;;;11.05;2.72;;;15.70;93.10;;;;;;5036771;28;20025;-70
2022/01/29 12:15:08;;;;;;;8.20;1.80;;;15.60;92.80;;;;;;5048294;28;20079;-71
2022/01/29 12:17:47;;;;;;;8.90;2.47;;;15.70;92.50;;;;;;5043836;28;20466;-73
2022/01/29 12:20:18;;;;;;;10.88;1.88;;;15.70;92.40;;;;;;5037618;28;20037;-70
2022/01/29 12:22:45;;;;;;;11.70;1.77;;;15.70;92.10;;;;;;5046909;28;20045;-65
2022/01/29 12:25:28;;;;;;;6.85;1.55;;;15.70;91.80;;;;;;5062753;28;20270;-64
2022/01/29 12:27:55;;;;;;;7.72;1.55;;;15.80;91.80;;;;;;5054613;28;20028;-69
2022/01/29 12:30:38;;;;;;;6.53;1.40;;;15.80;91.80;;;;;;5044406;28;20048;-64
2022/01/29 12:33:06;;;;;;;10.85;1.45;;;15.90;91.60;;;;;;5032797;28;20022;-63
2022/01/29 12:35:49;;;;;;;11.93;1.48;;;15.90;91.70;;;;;;5042543;28;20036;-65
2022/01/29 12:38:36;;;;;;;8.93;1.13;;;16.00;91.50;;;;;;5038644;28;20394;-63
2022/01/29 12:41:04;;;;;;;11.77;1.83;;;16.00;91.30;;;;;;5043031;28;20060;-71
2022/01/29 12:43:38;;;;;;;4.72;1.02;;;16.00;91.00;;;;;;5034406;28;20884;-62
2022/01/29 12:46:16;;;;;;;18.02;1.83;;;16.00;91.00;;;;;;5035087;28;20033;-62
2022/01/29 12:48:44;;;;;;;7.53;1.10;;;16.10;90.90;;;;;;5044506;28;20588;-72
2022/01/29 12:51:12;;;;;;;19.15;1.95;;;16.10;90.80;;;;;;5035671;28;20017;-70
2022/01/29 12:53:39;;;;;;;7.10;1.20;;;16.10;90.80;;;;;;5040964;28;20017;-71
2022/01/29 12:56:10;;;;;;;11.10;1.45;;;16.10;90.70;;;;;;5036104;28;20068;-71
2022/01/29 12:58:41;;;;;;;6.55;1.20;;;16.20;90.60;;;;;;5042327;28;20101;-72
2022/01/29 13:01:10;;;;;;;8.57;1.33;;;16.20;90.40;;;;;;5035939;28;20029;-70